Adjuntas, Puerto Rico
Current Conditions -  °F | °C
As of 6:50 AM on Thursday 18 Dec 2014 (Local Time) from TJBQ Reporting Station
Moderate Rain Moderate Rain  
Wind Chill: 70°   Ceiling: 3100
Heat Index: 70°   Visibility: 6mi
Dew Point: 66°   Wind: 3mph
Humidity: 88%   Direction: 20°NNE
Pressure: 30.04"   Gusts: NA
Location:  18.16°N, 66.72°W
Report Text: TJBQ 181050Z 02003KT 6SM RA BKN031 BKN039 OVC038 21/19 A3004 RMK RWY08 ATIS Q
Loading
Personal Weather Stations






























Interactive Weather Map New forecast layout! Learn more

10-Day Weather Forecast

Advertisements
Track Severe Weather on mobile